• Join FlightAware (Why Join?)
  • Login
  • US Flag 
05:28AM EST


 

Airport Tracker/Info


-or-


 

Live Flight TrackerFlight Track Log ✈ DAL1095 ✈ 21-Sep-2013 ✈ KCLT - KATL

Flight Track Log - Related Links

Times and Time Zones

All times are in EDT time to prevent confusion due to time zone crossing. See the DAL1095 flight status page for this flight to view local times or setup timezone preferences in your user account.

Time Position Orientation Groundspeed Altitude Reporting Facility
EDT Latitude Longitude Course Direction KTS MPH feet Rate Location/Type
01:07PM 35.1892 -80.9508 266° West 162 186 1,600  Level Atlanta Center
01:08PM 35.1536 -80.9522 182° South 187 215 2,600 2,040 Climbing Atlanta Center
01:09PM 35.0961 -80.9825 203° Southwest 253 291 5,200 2,580 Climbing Atlanta Center
01:10PM 35.0607 -81.3024 239° Southwest  Level Estimated
01:10PM 35.0908 -81.0258 262° West 283 326 6,600  Level Atlanta Center
01:11PM 35.0095 -81.4199 270° West  Level Estimated
01:11PM 35.0931 -81.1144 272° West 290 334 9,200  Level Atlanta Center
01:12PM 34.9582 -81.5372 259° West  Level Estimated
01:12PM 35.1242 -81.2022 293° West 280 322 11,400  Level Atlanta Center
01:13PM 34.9067 -81.6544 266° West  Level Estimated
01:13PM 35.1369 -81.3033 279° West 294 338 13,700  Level Atlanta Center
01:14PM 35.1433 -81.4100 274° West 322 371 14,800 1,440 Climbing Atlanta Center
01:15PM 35.1358 -81.5397 266° West 369 425 16,600 1,920 Climbing Atlanta Center
01:16PM 35.1028 -81.6650 252° West 392 451 18,700 1,860 Climbing Atlanta Center
01:17PM 35.0719 -81.8006 255° West 407 468 20,400 1,620 Climbing Atlanta Center
01:18PM 35.0389 -81.9358 253° West 414 476 22,000 1,500 Climbing Atlanta Center
01:19PM 35.0017 -82.0889 254° West 425 489 23,500 1,440 Climbing Atlanta Center
01:20PM 34.9664 -82.2292 253° West 430 495 24,900 1,500 Climbing Atlanta Center
01:21PM 34.9328 -82.3617 253° West 430 495 26,600 1,500 Climbing Atlanta Center
01:22PM 34.8969 -82.5017 253° West 430 495 28,000 660 Climbing Atlanta Center
01:23PM 34.8547 -82.6314 248° West 424 488 28,000  Level Atlanta Center
01:24PM 34.7831 -82.7489 233° Southwest 424 488 28,000  Level Atlanta Center
01:25PM 34.7092 -82.8664 233° Southwest 436 502 28,000 -300 Level Atlanta Center
01:26PM 34.6308 -82.9811 230° Southwest 452 520 27,500 -1,020 Descending Atlanta Center
01:27PM 34.5586 -83.1006 234° Southwest 446 513 26,000 -1,860 Descending Atlanta Center
01:28PM 34.4947 -83.1994 232° Southwest 435 501 23,800 -2,400 Descending Atlanta Center
01:29PM 34.4267 -83.3086 233° Southwest 422 486 21,200 -2,580 Descending Atlanta Center
01:30PM 34.3625 -83.4147 234° Southwest 408 470 18,700 -2,400 Descending Atlanta Center
01:31PM 34.2983 -83.5133 232° Southwest 388 447 16,400 -2,340 Descending Atlanta Center
01:32PM 34.2381 -83.6067 232° Southwest 367 422 14,100 -2,160 Descending Atlanta Center
01:33PM 34.1800 -83.6997 233° Southwest 357 411 12,100 -1,080 Descending Atlanta Center
01:34PM 34.1175 -83.7953 232° Southwest 351 404 12,000 -180 Descending Atlanta Center
01:35PM 34.0697 -83.8658 231° Southwest 311 358 11,800 -960 Descending Atlanta Center
01:35PM 34.0333 -83.9167 229° Southwest 265 305 10,400 -1,680 Descending Atlanta TRACON
01:36PM 33.9833 -83.9667 220° Southwest 263 303 9,100 -780 Descending Atlanta TRACON
01:37PM 33.9167 -83.9667 180° South 269 310 9,000 -60 Descending Atlanta TRACON
01:38PM 33.8333 -83.9667 180° South 268 308 9,000 -300 Level Atlanta TRACON
01:39PM 33.7667 -83.9667 180° South 270 311 8,500 -1,020 Descending Atlanta TRACON
01:40PM 33.7000 -83.9833 192° South 255 293 7,100 -780 Descending Atlanta TRACON
01:41PM 33.6333 -84.0167 203° Southwest 253 291 7,000 -480 Descending Atlanta TRACON
01:42PM 33.6333 -84.0833 270° West 201 231 6,200 -900 Descending Atlanta TRACON
01:43PM 33.6333 -84.1500 270° West 162 186 5,300 -840 Descending Atlanta TRACON
01:44PM 33.6333 -84.2000 270° West 160 184 4,600 -840 Descending Atlanta TRACON
01:45PM 33.6333 -84.2500 270° West 162 186 3,700 -900 Descending Atlanta TRACON
01:46PM 33.6333 -84.3000 270° West 159 183 2,800 -840 Descending Atlanta TRACON
01:47PM 33.6333 -84.3500 270° West 147 169 2,100 -780 Descending Atlanta TRACON
01:48PM 33.6333 -84.4000 270° West 156 180 1,300 -840 Descending Atlanta TRACON